sensor_id;sensor_type;location;lat;lon;timestamp;pressure;altitude;pressure_sealevel;temperature;humidity
3206;BME280;1615;53.602;11.418;2023-08-01T00:01:29;99415.00;;;19.19;100.00
3206;BME280;1615;53.602;11.418;2023-08-01T00:03:55;99269.03;;;18.35;100.00
3206;BME280;1615;53.602;11.418;2023-08-01T00:06:20;99393.66;;;19.23;100.00
3206;BME280;1615;53.602;11.418;2023-08-01T00:08:47;99315.84;;;18.80;100.00
3206;BME280;1615;53.602;11.418;2023-08-01T00:11:12;99326.69;;;18.95;100.00
3206;BME280;1615;53.602;11.418;2023-08-01T00:13:39;99404.97;;;19.48;100.00
3206;BME280;1615;53.602;11.418;2023-08-01T00:16:04;99388.28;;;19.48;100.00
3206;BME280;1615;53.602;11.418;2023-08-01T00:18:30;99345.25;;;19.28;100.00
3206;BME280;1615;53.602;11.418;2023-08-01T00:20:55;99345.00;;;19.47;100.00
3206;BME280;1615;53.602;11.418;2023-08-01T00:23:20;99328.69;;;19.42;100.00
3206;BME280;1615;53.602;11.418;2023-08-01T00:25:46;99350.63;;;19.57;100.00
3206;BME280;1615;53.602;11.418;2023-08-01T00:28:17;99358.19;;;19.60;100.00
3206;BME280;1615;53.602;11.418;2023-08-01T00:30:42;99239.28;;;18.79;100.00
3206;BME280;1615;53.602;11.418;2023-08-01T00:33:08;99340.69;;;19.56;100.00
3206;BME280;1615;53.602;11.418;2023-08-01T00:35:33;99345.91;;;19.65;100.00
3206;BME280;1615;53.602;11.418;2023-08-01T00:37:58;99274.03;;;19.09;100.00
3206;BME280;1615;53.602;11.418;2023-08-01T00:40:30;99271.78;;;19.25;100.00
3206;BME280;1615;53.602;11.418;2023-08-01T00:42:55;99296.50;;;19.41;100.00
3206;BME280;1615;53.602;11.418;2023-08-01T00:45:22;99290.56;;;19.46;100.00
3206;BME280;1615;53.602;11.418;2023-08-01T00:47:50;99242.81;;;19.30;100.00
3206;BME280;1615;53.602;11.418;2023-08-01T00:50:16;99308.59;;;19.73;100.00
3206;BME280;1615;53.602;11.418;2023-08-01T00:52:41;99315.41;;;19.79;100.00
3206;BME280;1615;53.602;11.418;2023-08-01T00:55:07;99293.09;;;19.65;100.00
3206;BME280;1615;53.602;11.418;2023-08-01T00:57:33;99277.97;;;19.59;100.00
3206;BME280;1615;53.602;11.418;2023-08-01T00:59:59;99248.28;;;19.16;100.00
3206;BME280;1615;53.602;11.418;2023-08-01T01:02:24;99278.41;;;19.68;100.00
3206;BME280;1615;53.602;11.418;2023-08-01T01:04:50;99283.63;;;19.80;100.00
3206;BME280;1615;53.602;11.418;2023-08-01T01:07:16;99287.59;;;19.79;100.00
3206;BME280;1615;53.602;11.418;2023-08-01T01:09:42;99282.41;;;19.77;100.00
3206;BME280;1615;53.602;11.418;2023-08-01T01:12:08;99276.47;;;19.79;100.00
3206;BME280;1615;53.602;11.418;2023-08-01T01:14:33;99250.19;;;19.66;100.00
3206;BME280;1615;53.602;11.418;2023-08-01T01:16:58;99172.13;;;19.24;100.00
3206;BME280;1615;53.602;11.418;2023-08-01T01:19:27;99204.00;;;19.44;100.00
3206;BME280;1615;53.602;11.418;2023-08-01T01:21:52;99121.09;;;18.81;100.00
3206;BME280;1615;53.602;11.418;2023-08-01T01:24:19;99235.88;;;19.60;100.00
3206;BME280;1615;53.602;11.418;2023-08-01T01:26:47;99141.88;;;19.12;100.00
3206;BME280;1615;53.602;11.418;2023-08-01T01:29:13;99247.09;;;19.81;100.00
3206;BME280;1615;53.602;11.418;2023-08-01T01:31:39;99169.78;;;19.26;100.00
3206;BME280;1615;53.602;11.418;2023-08-01T01:34:05;99211.25;;;19.66;100.00
3206;BME280;1615;53.602;11.418;2023-08-01T01:36:31;99294.75;;;19.80;100.00
3206;BME280;1615;53.602;11.418;2023-08-01T01:38:56;99241.53;;;19.81;100.00
3206;BME280;1615;53.602;11.418;2023-08-01T01:41:21;99226.75;;;19.70;100.00
3206;BME280;1615;53.602;11.418;2023-08-01T01:43:47;99229.56;;;19.74;100.00
3206;BME280;1615;53.602;11.418;2023-08-01T01:46:13;99232.75;;;19.83;100.00
3206;BME280;1615;53.602;11.418;2023-08-01T01:48:38;99212.88;;;19.74;100.00
3206;BME280;1615;53.602;11.418;2023-08-01T01:51:03;99200.94;;;19.70;100.00
3206;BME280;1615;53.602;11.418;2023-08-01T01:53:29;99235.16;;;19.88;100.00
3206;BME280;1615;53.602;11.418;2023-08-01T01:55:54;99176.28;;;19.61;100.00
3206;BME280;1615;53.602;11.418;2023-08-01T01:58:19;99190.22;;;19.72;100.00
3206;BME280;1615;53.602;11.418;2023-08-01T02:00:44;99064.81;;;18.95;100.00
3206;BME280;1615;53.602;11.418;2023-08-01T02:03:10;99212.91;;;19.88;100.00
3206;BME280;1615;53.602;11.418;2023-08-01T02:05:41;99194.59;;;19.73;100.00
3206;BME280;1615;53.602;11.418;2023-08-01T02:08:07;99165.13;;;19.51;100.00
3206;BME280;1615;53.602;11.418;2023-08-01T02:10:32;99140.47;;;19.46;100.00
3206;BME280;1615;53.602;11.418;2023-08-01T02:12:58;99142.06;;;19.43;100.00
3206;BME280;1615;53.602;11.418;2023-08-01T02:15:23;99079.47;;;18.92;100.00
3206;BME280;1615;53.602;11.418;2023-08-01T02:17:49;99205.75;;;19.87;100.00
3206;BME280;1615;53.602;11.418;2023-08-01T02:20:15;99112.66;;;19.32;100.00
3206;BME280;1615;53.602;11.418;2023-08-01T02:22:40;99153.25;;;19.61;100.00
3206;BME280;1615;53.602;11.418;2023-08-01T02:25:05;99202.59;;;19.92;100.00
3206;BME280;1615;53.602;11.418;2023-08-01T02:27:31;99182.31;;;19.91;100.00
3206;BME280;1615;53.602;11.418;2023-08-01T02:29:56;99169.59;;;19.80;100.00
3206;BME280;1615;53.602;11.418;2023-08-01T02:32:21;99123.84;;;19.60;100.00
3206;BME280;1615;53.602;11.418;2023-08-01T02:34:47;99185.09;;;19.88;100.00
3206;BME280;1615;53.602;11.418;2023-08-01T02:37:12;99134.16;;;19.56;100.00
3206;BME280;1615;53.602;11.418;2023-08-01T02:39:38;99148.50;;;19.65;100.00
3206;BME280;1615;53.602;11.418;2023-08-01T02:42:03;99030.22;;;18.75;100.00
3206;BME280;1615;53.602;11.418;2023-08-01T02:44:29;99138.94;;;19.55;100.00
3206;BME280;1615;53.602;11.418;2023-08-01T02:46:54;99133.38;;;19.52;100.00
3206;BME280;1615;53.602;11.418;2023-08-01T02:49:19;99124.63;;;19.57;100.00
3206;BME280;1615;53.602;11.418;2023-08-01T02:51:45;99120.31;;;19.66;100.00
3206;BME280;1615;53.602;11.418;2023-08-01T02:54:10;99148.53;;;19.79;100.00
3206;BME280;1615;53.602;11.418;2023-08-01T02:56:35;99133.81;;;19.75;100.00
3206;BME280;1615;53.602;11.418;2023-08-01T02:59:06;99052.28;;;19.22;100.00
3206;BME280;1615;53.602;11.418;2023-08-01T03:01:31;99148.94;;;19.81;100.00
3206;BME280;1615;53.602;11.418;2023-08-01T03:03:56;99124.22;;;19.51;100.00
3206;BME280;1615;53.602;11.418;2023-08-01T03:06:22;99142.13;;;19.61;100.00
3206;BME280;1615;53.602;11.418;2023-08-01T03:08:47;99053.38;;;19.14;100.00
3206;BME280;1615;53.602;11.418;2023-08-01T03:11:12;99156.47;;;19.77;100.00
3206;BME280;1615;53.602;11.418;2023-08-01T03:13:38;99153.28;;;19.78;100.00
3206;BME280;1615;53.602;11.418;2023-08-01T03:16:03;99166.41;;;19.78;100.00
3206;BME280;1615;53.602;11.418;2023-08-01T03:18:29;99149.25;;;19.62;100.00
3206;BME280;1615;53.602;11.418;2023-08-01T03:20:54;99148.53;;;19.79;100.00
3206;BME280;1615;53.602;11.418;2023-08-01T03:23:20;99083.28;;;19.45;100.00
3206;BME280;1615;53.602;11.418;2023-08-01T03:25:45;99123.09;;;19.70;100.00
3206;BME280;1615;53.602;11.418;2023-08-01T03:28:10;99147.75;;;19.85;100.00
3206;BME280;1615;53.602;11.418;2023-08-01T03:30:36;99164.44;;;19.85;100.00
3206;BME280;1615;53.602;11.418;2023-08-01T03:33:01;99132.63;;;19.76;100.00
3206;BME280;1615;53.602;11.418;2023-08-01T03:35:27;99130.66;;;19.80;100.00
3206;BME280;1615;53.602;11.418;2023-08-01T03:37:53;99126.28;;;19.79;100.00
3206;BME280;1615;53.602;11.418;2023-08-01T03:40:18;99067.75;;;19.30;100.00
3206;BME280;1615;53.602;11.418;2023-08-01T03:42:45;99134.25;;;19.87;100.00
3206;BME280;1615;53.602;11.418;2023-08-01T03:45:10;99079.34;;;19.53;100.00
3206;BME280;1615;53.602;11.418;2023-08-01T03:47:35;98985.03;;;18.81;100.00
3206;BME280;1615;53.602;11.418;2023-08-01T03:50:00;99123.09;;;19.77;100.00
3206;BME280;1615;53.602;11.418;2023-08-01T03:52:26;99138.63;;;19.88;100.00
3206;BME280;1615;53.602;11.418;2023-08-01T03:54:54;99113.13;;;19.62;100.00
3206;BME280;1615;53.602;11.418;2023-08-01T03:57:20;99139.00;;;19.87;100.00
3206;BME280;1615;53.602;11.418;2023-08-01T03:59:46;99111.97;;;19.70;100.00
3206;BME280;1615;53.602;11.418;2023-08-01T04:02:11;99041.16;;;19.29;100.00
3206;BME280;1615;53.602;11.418;2023-08-01T04:04:36;99100.03;;;19.66;100.00
3206;BME280;1615;53.602;11.418;2023-08-01T04:07:02;99026.03;;;19.16;100.00
3206;BME280;1615;53.602;11.418;2023-08-01T04:09:27;99065.41;;;19.46;100.00
3206;BME280;1615;53.602;11.418;2023-08-01T04:11:52;99113.94;;;19.73;100.00
3206;BME280;1615;53.602;11.418;2023-08-01T04:14:18;99129.47;;;19.81;100.00
3206;BME280;1615;53.602;11.418;2023-08-01T04:16:43;98915.47;;;18.39;100.00
3206;BME280;1615;53.602;11.418;2023-08-01T04:19:09;99070.59;;;19.44;100.00
3206;BME280;1615;53.602;11.418;2023-08-01T04:21:35;99125.50;;;19.85;100.00
3206;BME280;1615;53.602;11.418;2023-08-01T04:24:00;99102.41;;;19.67;100.00
3206;BME280;1615;53.602;11.418;2023-08-01T04:26:25;99089.72;;;19.66;100.00
3206;BME280;1615;53.602;11.418;2023-08-01T04:28:51;99095.28;;;19.63;100.00
3206;BME280;1615;53.602;11.418;2023-08-01T04:31:16;99037.59;;;19.28;100.00
3206;BME280;1615;53.602;11.418;2023-08-01T04:33:41;99111.19;;;19.80;100.00
3206;BME280;1615;53.602;11.418;2023-08-01T04:36:06;99080.13;;;19.50;100.00
3206;BME280;1615;53.602;11.418;2023-08-01T04:38:32;99097.25;;;19.66;100.00
3206;BME280;1615;53.602;11.418;2023-08-01T04:40:57;99018.13;;;19.21;100.00
3206;BME280;1615;53.602;11.418;2023-08-01T04:43:22;99119.94;;;19.89;100.00
3206;BME280;1615;53.602;11.418;2023-08-01T04:45:48;99088.91;;;19.66;100.00
3206;BME280;1615;53.602;11.418;2023-08-01T04:48:13;99112.78;;;19.84;100.00
3206;BME280;1615;53.602;11.418;2023-08-01T04:50:38;99031.63;;;19.30;100.00
3206;BME280;1615;53.602;11.418;2023-08-01T04:53:03;99120.34;;;19.84;100.00
3206;BME280;1615;53.602;11.418;2023-08-01T04:55:29;98932.91;;;18.40;100.00
3206;BME280;1615;53.602;11.418;2023-08-01T04:57:54;99090.09;;;19.72;100.00
3206;BME280;1615;53.602;11.418;2023-08-01T05:00:20;99080.19;;;19.67;100.00
3206;BME280;1615;53.602;11.418;2023-08-01T05:02:45;99053.97;;;19.58;100.00
3206;BME280;1615;53.602;11.418;2023-08-01T05:05:10;99057.94;;;19.67;100.00
3206;BME280;1615;53.602;11.418;2023-08-01T05:07:36;99078.59;;;19.80;100.00
3206;BME280;1615;53.602;11.418;2023-08-01T05:10:01;98948.56;;;18.93;100.00
3206;BME280;1615;53.602;11.418;2023-08-01T05:12:26;99107.22;;;19.91;100.00
3206;BME280;1615;53.602;11.418;2023-08-01T05:14:51;99040.03;;;19.51;100.00
3206;BME280;1615;53.602;11.418;2023-08-01T05:17:17;99011.03;;;19.41;100.00
3206;BME280;1615;53.602;11.418;2023-08-01T05:19:42;99092.13;;;19.89;100.00
3206;BME280;1615;53.602;11.418;2023-08-01T05:22:07;99058.75;;;19.75;100.00
3206;BME280;1615;53.602;11.418;2023-08-01T05:24:33;99051.19;;;19.65;100.00
3206;BME280;1615;53.602;11.418;2023-08-01T05:26:58;98868.75;;;18.52;100.00
3206;BME280;1615;53.602;11.418;2023-08-01T05:29:23;99077.81;;;19.76;100.00
3206;BME280;1615;53.602;11.418;2023-08-01T05:31:48;99089.75;;;19.84;100.00
3206;BME280;1615;53.602;11.418;2023-08-01T05:34:14;99092.13;;;19.82;100.00
3206;BME280;1615;53.602;11.418;2023-08-01T05:36:39;99061.09;;;19.52;100.00
3206;BME280;1615;53.602;11.418;2023-08-01T05:39:05;98891.72;;;18.49;100.00
3206;BME280;1615;53.602;11.418;2023-08-01T05:41:30;99015.38;;;19.32;100.00
3206;BME280;1615;53.602;11.418;2023-08-01T05:43:56;98906.03;;;18.58;100.00
3206;BME280;1615;53.602;11.418;2023-08-01T05:46:21;99047.63;;;19.78;100.00
3206;BME280;1615;53.602;11.418;2023-08-01T05:48:46;99085.78;;;20.06;100.00
3206;BME280;1615;53.602;11.418;2023-08-01T05:51:12;99029.34;;;19.74;100.00
3206;BME280;1615;53.602;11.418;2023-08-01T05:53:37;99100.13;;;20.25;100.00
3206;BME280;1615;53.602;11.418;2023-08-01T05:56:03;99055.16;;;19.99;100.00
3206;BME280;1615;53.602;11.418;2023-08-01T05:58:30;99117.63;;;20.33;100.00
3206;BME280;1615;53.602;11.418;2023-08-01T06:00:55;99062.75;;;20.02;100.00
3206;BME280;1615;53.602;11.418;2023-08-01T06:03:20;99081.00;;;19.99;100.00
3206;BME280;1615;53.602;11.418;2023-08-01T06:05:46;99107.25;;;20.02;100.00
3206;BME280;1615;53.602;11.418;2023-08-01T06:08:11;99033.72;;;19.78;100.00
3206;BME280;1615;53.602;11.418;2023-08-01T06:10:38;98869.19;;;18.75;100.00
3206;BME280;1615;53.602;11.418;2023-08-01T06:13:03;99108.88;;;20.17;100.00
3206;BME280;1615;53.602;11.418;2023-08-01T06:15:29;99089.34;;;20.06;100.00
3206;BME280;1615;53.602;11.418;2023-08-01T06:17:54;99036.50;;;19.68;100.00
3206;BME280;1615;53.602;11.418;2023-08-01T06:20:19;99024.56;;;19.78;100.00
3206;BME280;1615;53.602;11.418;2023-08-01T06:22:45;99042.84;;;19.93;100.00
3206;BME280;1615;53.602;11.418;2023-08-01T06:25:11;99035.31;;;19.90;100.00
3206;BME280;1615;53.602;11.418;2023-08-01T06:27:37;99042.88;;;20.14;100.00
3206;BME280;1615;53.602;11.418;2023-08-01T06:30:03;99096.91;;;20.65;100.00
3206;BME280;1615;53.602;11.418;2023-08-01T06:32:28;99056.34;;;20.57;100.00
3206;BME280;1615;53.602;11.418;2023-08-01T06:34:53;99032.03;;;20.72;100.00
3206;BME280;1615;53.602;11.418;2023-08-01T06:37:19;99059.44;;;21.01;100.00
3206;BME280;1615;53.602;11.418;2023-08-01T06:39:47;99068.53;;;21.16;100.00
3206;BME280;1615;53.602;11.418;2023-08-01T06:42:12;99064.97;;;21.12;100.00
3206;BME280;1615;53.602;11.418;2023-08-01T06:44:37;99080.09;;;21.18;100.00
3206;BME280;1615;53.602;11.418;2023-08-01T06:47:03;99077.31;;;21.11;100.00
3206;BME280;1615;53.602;11.418;2023-08-01T06:49:28;99105.59;;;21.06;100.00
3206;BME280;1615;53.602;11.418;2023-08-01T06:51:54;99056.25;;;21.03;100.00
3206;BME280;1615;53.602;11.418;2023-08-01T06:54:19;99032.81;;;20.93;100.00
3206;BME280;1615;53.602;11.418;2023-08-01T06:56:44;99021.28;;;20.74;100.00
3206;BME280;1615;53.602;11.418;2023-08-01T06:59:16;99001.88;;;20.46;100.00
3206;BME280;1615;53.602;11.418;2023-08-01T07:01:42;98867.28;;;19.56;100.00
3206;BME280;1615;53.602;11.418;2023-08-01T07:04:09;99100.41;;;21.08;100.00
3206;BME280;1615;53.602;11.418;2023-08-01T07:06:35;98994.31;;;20.50;100.00
3206;BME280;1615;53.602;11.418;2023-08-01T07:09:00;99029.22;;;20.86;100.00
3206;BME280;1615;53.602;11.418;2023-08-01T07:11:26;99059.41;;;21.08;100.00
3206;BME280;1615;53.602;11.418;2023-08-01T07:13:51;99087.19;;;21.29;100.00
3206;BME280;1615;53.602;11.418;2023-08-01T07:16:16;99083.16;;;21.37;100.00
3206;BME280;1615;53.602;11.418;2023-08-01T07:18:41;99076.78;;;21.44;100.00
3206;BME280;1615;53.602;11.418;2023-08-01T07:21:07;98974.69;;;20.85;100.00
3206;BME280;1615;53.602;11.418;2023-08-01T07:23:34;99040.94;;;21.39;100.00
3206;BME280;1615;53.602;11.418;2023-08-01T07:26:00;99033.75;;;21.45;100.00
3206;BME280;1615;53.602;11.418;2023-08-01T07:28:25;98990.06;;;21.21;100.00
3206;BME280;1615;53.602;11.418;2023-08-01T07:31:01;99097.13;;;22.06;100.00
3206;BME280;1615;53.602;11.418;2023-08-01T07:33:26;98982.69;;;21.51;100.00
3206;BME280;1615;53.602;11.418;2023-08-01T07:35:52;98983.91;;;21.47;100.00
3206;BME280;1615;53.602;11.418;2023-08-01T07:38:17;99047.38;;;21.94;100.00
3206;BME280;1615;53.602;11.418;2023-08-01T07:40:43;98989.94;;;21.42;100.00
3206;BME280;1615;53.602;11.418;2023-08-01T07:43:08;99068.44;;;22.05;100.00
3206;BME280;1615;53.602;11.418;2023-08-01T07:45:34;99071.63;;;22.04;100.00
3206;BME280;1615;53.602;11.418;2023-08-01T07:48:00;98951.00;;;21.28;100.00
3206;BME280;1615;53.602;11.418;2023-08-01T07:50:26;99004.91;;;21.69;100.00
3206;BME280;1615;53.602;11.418;2023-08-01T07:52:51;99066.34;;;22.16;100.00
3206;BME280;1615;53.602;11.418;2023-08-01T07:55:16;99113.94;;;21.95;100.00
3206;BME280;1615;53.602;11.418;2023-08-01T07:57:43;98965.38;;;21.23;100.00
3206;BME280;1615;53.602;11.418;2023-08-01T08:00:11;99050.78;;;21.61;100.00
3206;BME280;1615;53.602;11.418;2023-08-01T08:02:36;98969.09;;;20.95;100.00
3206;BME280;1615;53.602;11.418;2023-08-01T08:05:01;98947.34;;;20.62;100.00
3206;BME280;1615;53.602;11.418;2023-08-01T08:07:27;99091.09;;;21.46;100.00
3206;BME280;1615;53.602;11.418;2023-08-01T08:09:52;99081.63;;;21.26;100.00
3206;BME280;1615;53.602;11.418;2023-08-01T08:12:22;99018.09;;;20.86;100.00
3206;BME280;1615;53.602;11.418;2023-08-01T08:14:48;99089.53;;;21.38;100.00
3206;BME280;1615;53.602;11.418;2023-08-01T08:17:13;99076.47;;;21.17;100.00
3206;BME280;1615;53.602;11.418;2023-08-01T08:19:40;99070.09;;;21.17;100.00
3206;BME280;1615;53.602;11.418;2023-08-01T08:22:05;99009.75;;;20.75;100.00
3206;BME280;1615;53.602;11.418;2023-08-01T08:24:30;99065.41;;;21.07;100.00
3206;BME280;1615;53.602;11.418;2023-08-01T08:26:56;99036.38;;;20.94;100.00
3206;BME280;1615;53.602;11.418;2023-08-01T08:29:21;99068.09;;;21.21;100.00
3206;BME280;1615;53.602;11.418;2023-08-01T08:31:47;98997.50;;;20.59;100.00
3206;BME280;1615;53.602;11.418;2023-08-01T08:34:12;99108.72;;;21.22;100.00
3206;BME280;1615;53.602;11.418;2023-08-01T08:36:38;98994.31;;;20.53;100.00
3206;BME280;1615;53.602;11.418;2023-08-01T08:39:03;98993.56;;;20.39;100.00
3206;BME280;1615;53.602;11.418;2023-08-01T08:41:32;99034.00;;;20.89;100.00
3206;BME280;1615;53.602;11.418;2023-08-01T08:44:01;99011.72;;;20.89;100.00
3206;BME280;1615;53.602;11.418;2023-08-01T08:46:34;99130.94;;;21.39;100.00
3206;BME280;1615;53.602;11.418;2023-08-01T08:49:03;99094.72;;;21.36;100.00
3206;BME280;1615;53.602;11.418;2023-08-01T08:51:29;99052.22;;;21.18;100.00
3206;BME280;1615;53.602;11.418;2023-08-01T08:53:56;99091.75;;;21.74;100.00
3206;BME280;1615;53.602;11.418;2023-08-01T08:56:22;99104.34;;;22.00;100.00
3206;BME280;1615;53.602;11.418;2023-08-01T08:58:48;98958.28;;;21.08;100.00
3206;BME280;1615;53.602;11.418;2023-08-01T09:01:14;99072.03;;;22.02;100.00
3206;BME280;1615;53.602;11.418;2023-08-01T09:03:40;99081.22;;;21.99;100.00
3206;BME280;1615;53.602;11.418;2023-08-01T09:06:16;99081.88;;;22.17;100.00
3206;BME280;1615;53.602;11.418;2023-08-01T09:08:49;99102.34;;;22.51;100.00
3206;BME280;1615;53.602;11.418;2023-08-01T09:11:17;99055.31;;;22.46;100.00
3206;BME280;1615;53.602;11.418;2023-08-01T09:13:43;98833.66;;;21.12;100.00
3206;BME280;1615;53.602;11.418;2023-08-01T09:16:10;99058.06;;;22.50;100.00
3206;BME280;1615;53.602;11.418;2023-08-01T09:18:50;99108.47;;;22.80;100.00
3206;BME280;1615;53.602;11.418;2023-08-01T09:21:19;99097.59;;;22.89;100.00
3206;BME280;1615;53.602;11.418;2023-08-01T09:23:45;99073.38;;;22.75;100.00
3206;BME280;1615;53.602;11.418;2023-08-01T09:26:18;99035.38;;;22.44;100.00
3206;BME280;1615;53.602;11.418;2023-08-01T09:28:55;99099.25;;;22.83;100.00
3206;BME280;1615;53.602;11.418;2023-08-01T09:31:26;99080.84;;;22.48;100.00
3206;BME280;1615;53.602;11.418;2023-08-01T09:33:52;99039.16;;;22.20;100.00
3206;BME280;1615;53.602;11.418;2023-08-01T09:36:21;99080.41;;;22.50;100.00
3206;BME280;1615;53.602;11.418;2023-08-01T09:38:47;99072.47;;;22.45;100.00
3206;BME280;1615;53.602;11.418;2023-08-01T09:41:17;99087.63;;;22.47;100.00
3206;BME280;1615;53.602;11.418;2023-08-01T09:43:46;99072.50;;;22.38;100.00
3206;BME280;1615;53.602;11.418;2023-08-01T09:46:12;99039.78;;;22.42;100.00
3206;BME280;1615;53.602;11.418;2023-08-01T09:48:37;98981.53;;;22.00;100.00
3206;BME280;1615;53.602;11.418;2023-08-01T09:51:10;99088.53;;;22.78;100.00
3206;BME280;1615;53.602;11.418;2023-08-01T09:53:53;99091.38;;;22.71;100.00
3206;BME280;1615;53.602;11.418;2023-08-01T09:56:25;99086.78;;;22.91;100.00
3206;BME280;1615;53.602;11.418;2023-08-01T09:58:52;99070.78;;;23.28;100.00
3206;BME280;1615;53.602;11.418;2023-08-01T10:01:20;99092.19;;;23.42;93.78
3206;BME280;1615;53.602;11.418;2023-08-01T10:03:47;99090.31;;;23.32;94.67
3206;BME280;1615;53.602;11.418;2023-08-01T10:06:22;99099.47;;;23.36;91.62
3206;BME280;1615;53.602;11.418;2023-08-01T10:08:50;99112.50;;;23.46;95.74
3206;BME280;1615;53.602;11.418;2023-08-01T10:11:20;98964.16;;;22.63;93.46
3206;BME280;1615;53.602;11.418;2023-08-01T10:13:46;99099.44;;;23.66;95.33
3206;BME280;1615;53.602;11.418;2023-08-01T10:16:12;99088.16;;;23.73;95.00
3206;BME280;1615;53.602;11.418;2023-08-01T10:18:38;99041.16;;;23.61;90.54
3206;BME280;1615;53.602;11.418;2023-08-01T10:21:09;98998.50;;;23.27;83.34
3206;BME280;1615;53.602;11.418;2023-08-01T10:23:37;99057.53;;;23.89;87.35
3206;BME280;1615;53.602;11.418;2023-08-01T10:26:05;99088.25;;;23.96;84.81
3206;BME280;1615;53.602;11.418;2023-08-01T10:28:38;99082.25;;;23.94;81.47
3206;BME280;1615;53.602;11.418;2023-08-01T10:31:11;99021.78;;;23.47;83.39
3206;BME280;1615;53.602;11.418;2023-08-01T10:33:38;99075.09;;;23.93;80.07
3206;BME280;1615;53.602;11.418;2023-08-01T10:38:47;99068.19;;;23.71;82.81
3206;BME280;1615;53.602;11.418;2023-08-01T10:41:20;99061.84;;;23.67;88.44
3206;BME280;1615;53.602;11.418;2023-08-01T10:43:45;99084.50;;;24.06;85.56
3206;BME280;1615;53.602;11.418;2023-08-01T10:46:10;98990.91;;;23.54;84.08
3206;BME280;1615;53.602;11.418;2023-08-01T10:48:47;99061.72;;;24.04;85.88
3206;BME280;1615;53.602;11.418;2023-08-01T10:51:13;99028.06;;;23.81;85.05
3206;BME280;1615;53.602;11.418;2023-08-01T10:53:39;99085.22;;;24.10;81.79
3206;BME280;1615;53.602;11.418;2023-08-01T10:56:04;98977.66;;;23.58;84.64
3206;BME280;1615;53.602;11.418;2023-08-01T10:58:30;99044.97;;;23.74;77.47
3206;BME280;1615;53.602;11.418;2023-08-01T11:00:58;99010.59;;;23.47;79.33
3206;BME280;1615;53.602;11.418;2023-08-01T11:03:34;99079.25;;;23.81;80.57
3206;BME280;1615;53.602;11.418;2023-08-01T11:05:59;98590.63;;;20.94;80.75
3206;BME280;1615;53.602;11.418;2023-08-01T11:08:37;99060.00;;;24.10;79.42
3206;BME280;1615;53.602;11.418;2023-08-01T11:11:04;99069.22;;;24.33;80.59
3206;BME280;1615;53.602;11.418;2023-08-01T11:13:30;98974.97;;;24.00;81.50
3206;BME280;1615;53.602;11.418;2023-08-01T11:15:55;98635.66;;;21.56;85.37
3206;BME280;1615;53.602;11.418;2023-08-01T11:18:22;99003.53;;;24.57;82.28
3206;BME280;1615;53.602;11.418;2023-08-01T11:20:47;99074.50;;;24.74;86.08
3206;BME280;1615;53.602;11.418;2023-08-01T11:23:12;99081.28;;;24.53;80.88
3206;BME280;1615;53.602;11.418;2023-08-01T11:25:40;99091.44;;;24.21;81.77
3206;BME280;1615;53.602;11.418;2023-08-01T11:28:08;99083.47;;;23.93;82.32
3206;BME280;1615;53.602;11.418;2023-08-01T11:30:34;99038.09;;;23.52;81.43
3206;BME280;1615;53.602;11.418;2023-08-01T11:33:00;99096.88;;;23.78;83.76
3206;BME280;1615;53.602;11.418;2023-08-01T11:35:25;99083.53;;;23.59;89.12
3206;BME280;1615;53.602;11.418;2023-08-01T11:37:51;98814.91;;;21.16;88.72
3206;BME280;1615;53.602;11.418;2023-08-01T11:40:17;99052.16;;;23.15;91.48
3206;BME280;1615;53.602;11.418;2023-08-01T11:42:42;99090.31;;;23.32;94.52
3206;BME280;1615;53.602;11.418;2023-08-01T11:45:09;99093.13;;;23.32;97.92
3206;BME280;1615;53.602;11.418;2023-08-01T11:47:35;99084.41;;;23.56;100.00
3206;BME280;1615;53.602;11.418;2023-08-01T11:50:00;98984.34;;;23.07;100.00
3206;BME280;1615;53.602;11.418;2023-08-01T11:52:27;98870.25;;;22.99;98.90
3206;BME280;1615;53.602;11.418;2023-08-01T11:54:53;99085.06;;;24.66;98.58
3206;BME280;1615;53.602;11.418;2023-08-01T11:57:20;99016.53;;;24.48;94.01
3206;BME280;1615;53.602;11.418;2023-08-01T11:59:54;99070.38;;;24.82;85.11
3206;BME280;1615;53.602;11.418;2023-08-01T12:02:23;99088.22;;;25.11;88.15
3206;BME280;1615;53.602;11.418;2023-08-01T12:04:49;99089.81;;;25.12;89.63
3206;BME280;1615;53.602;11.418;2023-08-01T12:07:15;99030.53;;;24.71;84.74
3206;BME280;1615;53.602;11.418;2023-08-01T12:09:41;99092.09;;;25.17;80.35
3206;BME280;1615;53.602;11.418;2023-08-01T12:12:08;99070.81;;;25.00;85.12
3206;BME280;1615;53.602;11.418;2023-08-01T12:14:33;99095.38;;;24.92;80.21
3206;BME280;1615;53.602;11.418;2023-08-01T12:16:59;99077.09;;;24.65;77.23
3206;BME280;1615;53.602;11.418;2023-08-01T12:19:24;99080.44;;;24.79;79.46
3206;BME280;1615;53.602;11.418;2023-08-01T12:21:49;99060.88;;;24.76;77.11
3206;BME280;1615;53.602;11.418;2023-08-01T12:24:15;98994.25;;;24.41;76.54
3206;BME280;1615;53.602;11.418;2023-08-01T12:26:40;98986.09;;;24.04;71.07
3206;BME280;1615;53.602;11.418;2023-08-01T12:29:06;99092.44;;;24.57;73.22
3206;BME280;1615;53.602;11.418;2023-08-01T12:31:32;99109.88;;;24.68;75.51
3206;BME280;1615;53.602;11.418;2023-08-01T12:33:58;99107.88;;;24.42;71.98
3206;BME280;1615;53.602;11.418;2023-08-01T12:36:23;99100.16;;;24.95;73.71
3206;BME280;1615;53.602;11.418;2023-08-01T12:38:48;99100.28;;;25.31;76.10
3206;BME280;1615;53.602;11.418;2023-08-01T12:41:14;99061.16;;;25.01;68.66
3206;BME280;1615;53.602;11.418;2023-08-01T12:43:39;98958.41;;;24.09;68.34
3206;BME280;1615;53.602;11.418;2023-08-01T12:46:04;98948.44;;;24.08;69.79
3206;BME280;1615;53.602;11.418;2023-08-01T12:48:29;99101.50;;;25.30;67.14
3206;BME280;1615;53.602;11.418;2023-08-01T12:50:55;99143.66;;;25.46;64.07
3206;BME280;1615;53.602;11.418;2023-08-01T12:53:21;99098.47;;;25.60;65.33
3206;BME280;1615;53.602;11.418;2023-08-01T12:55:47;99109.44;;;25.70;67.38
3206;BME280;1615;53.602;11.418;2023-08-01T12:58:14;99112.25;;;25.70;71.21
3206;BME280;1615;53.602;11.418;2023-08-01T13:00:41;98613.72;;;22.14;65.81